WetterOnline ( http://www.wetteronline.ch )

Wetter aktuell München

Aktuelles Wetter: München/Stadt (535m)

6-stündlich | Neueste Meldungen
Ortszeit Temperatur Wetter
Di, 19.03. 1:00 1.7° C leicht bewölkt
Mo, 18.03. 19:00 3.3° C leicht bewölkt
Mo, 18.03. 13:00 5.1° C bedeckt
Mo, 18.03. 7:00 2.8° C bedeckt
Mo, 18.03. 1:00 3.3° C bedeckt
So, 17.03. 19:00 5.7° C leichter Regen
So, 17.03. 13:00 18.3° C leicht bewölkt
So, 17.03. 7:00 8.2° C leicht bewölkt
Ortszeit Temperatur Wetter
Di, 19.03. 6:00 1.6° C bedeckt
Di, 19.03. 5:50 1.6° C bedeckt
Di, 19.03. 5:40 1.6° C bedeckt
Di, 19.03. 5:30 1.5° C bedeckt
Di, 19.03. 5:20 1.5° C bedeckt
Di, 19.03. 5:10 1.6° C bedeckt
Di, 19.03. 5:00 1.5° C bedeckt
Di, 19.03. 4:30 1.2° C wolkig
Di, 19.03. 4:00 1.1° C wolkenlos
Di, 19.03. 3:30 0.9° C wolkenlos
Di, 19.03. 3:00 1.0° C wolkenlos
Ortszeit Relative Feuchte Sichtweite
Di, 19.03. 1:00 87% 45 km
Mo, 18.03. 19:00 79% >70 km
Mo, 18.03. 13:00 57% 65 km
Mo, 18.03. 7:00 82% 50 km
Mo, 18.03. 1:00 82% >70 km
So, 17.03. 19:00 81% 18 km
So, 17.03. 13:00 20% >70 km
So, 17.03. 7:00 39% >70 km
Ortszeit Relative Feuchte Sichtweite
Di, 19.03. 6:00 87% 35 km
Di, 19.03. 5:50 87% -
Di, 19.03. 5:40 88% -
Di, 19.03. 5:30 88% 35 km
Di, 19.03. 5:20 88% -
Di, 19.03. 5:10 87% -
Di, 19.03. 5:00 87% 45 km
Di, 19.03. 4:30 90% 45 km
Di, 19.03. 4:00 90% 45 km
Di, 19.03. 3:30 91% 45 km
Di, 19.03. 3:00 90% 40 km
Ortszeit Niederschlagsmenge Niederschlagsart
Di, 19.03. 1:00 0.1 l/m2 in 6 Std. Schnee, Regen
Mo, 18.03. 19:00 0.1 l/m2 in 12 Std. Regen
Mo, 18.03. 13:00 0.1 l/m2 in 6 Std. Schnee, Regen
Mo, 18.03. 7:00 3 l/m2 in 12 Std. -
Mo, 18.03. 1:00 3 l/m2 in 6 Std. Regen
So, 17.03. 19:00 0.4 l/m2 in 12 Std. Regen
So, 17.03. 13:00 0.0 l/m2 in 6 Std. -
So, 17.03. 7:00 0.0 l/m2 in 12 Std. -
Ortszeit Niederschlagsmenge Niederschlagsart
Di, 19.03. 6:00 0.0 l/m2 in 1 Std. -
Di, 19.03. 5:50 keine Meldung -
Di, 19.03. 5:40 keine Meldung -
Di, 19.03. 5:30 0.0 l/m2 in 1 Std. -
Di, 19.03. 5:20 keine Meldung -
Di, 19.03. 5:10 keine Meldung -
Di, 19.03. 5:00 0.0 l/m2 in 1 Std. -
Di, 19.03. 4:30 0.0 l/m2 in 1 Std. -
Di, 19.03. 4:00 0.0 l/m2 in 1 Std. -
Di, 19.03. 3:30 0.0 l/m2 in 1 Std. -
Di, 19.03. 3:00 0.0 l/m2 in 1 Std. -
Ortszeit Stärke Spitze Richtung
km/h Bft. km/h Grad Sektor
Di, 19.03. 1:00 9 2 24 240° SW
Mo, 18.03. 19:00 15 3 35 240° SW
Mo, 18.03. 13:00 19 3 44 300° NW
Mo, 18.03. 7:00 9 2 33 250° W
Mo, 18.03. 1:00 17 3 46 240° SW
So, 17.03. 19:00 30 5 78 320° NW
So, 17.03. 13:00 24 4 54 270° W
So, 17.03. 7:00 11 2 25 190° S
Ortszeit Stärke Spitze Richtung
km/h Bft. km/h Grad Sektor
Di, 19.03. 6:00 7 2 11 270° W
Di, 19.03. 5:50 7 2 - 270° W
Di, 19.03. 5:40 7 2 - 270° W
Di, 19.03. 5:30 7 2 11 250° W
Di, 19.03. 5:20 7 2 - 250° W
Di, 19.03. 5:10 7 2 - 250° W
Di, 19.03. 5:00 7 2 11 250° W
Di, 19.03. 4:30 7 2 11 230° SW
Di, 19.03. 4:00 7 2 11 230° SW
Di, 19.03. 3:30 6 1 11 240° SW
Di, 19.03. 3:00 7 2 11 250° W
Ortszeit Untergrenze Bedeckung Gattung
total tief tief mittel hoch
Di, 19.03. 1:00 1800 m 2/8 2/8 - - -
Mo, 18.03. 19:00 2100 m 2/8 2/8 - - -
Mo, 18.03. 13:00 1170 m 8/8 8/8 - - -
Mo, 18.03. 7:00 3300 m 8/8 8/8 - - -
Mo, 18.03. 1:00 1500 m 8/8 8/8 - - -
So, 17.03. 19:00 570 m 8/8 8/8 - - -
So, 17.03. 13:00 9000 m 8/8 0/8 - - -
So, 17.03. 7:00 8400 m 4/8 0/8 - - -
Ortszeit Bedeckungsgrad in Achtel und Wolkenuntergrenze
Di, 19.03. 6:00 1(1170m) 3(1440m) 8(1800m)
Di, 19.03. 5:50 1(1170m) 3(1440m) 8(1800m)
Di, 19.03. 5:40 1(1230m) 4(1500m) 8(1800m)
Di, 19.03. 5:30 1(1200m) 6(1500m) 8(1800m)
Di, 19.03. 5:20 1(1200m) 6(1500m) 8(1800m)
Di, 19.03. 5:10 4(1470m) 7(1800m) 8(2100m)
Di, 19.03. 5:00 4(1470m) 7(1800m) 8(2100m)
Di, 19.03. 4:30 4(1410m) 4(2100m) 7(2100m)
Di, 19.03. 4:00 keine Wolken
Di, 19.03. 3:30 keine Wolken
Di, 19.03. 3:00 keine Wolken
Ortszeit Luftdruck NN (hPa) Tendenz (hPa in 3 Std.)
Di, 19.03. 1:00 1026 + 0,6
Mo, 18.03. 19:00 1023 + 1,7
Mo, 18.03. 13:00 1021 + 1,1
Mo, 18.03. 7:00 1018 + 0,3
Mo, 18.03. 1:00 1017 + 1,6
So, 17.03. 19:00 1011 + 4,6
So, 17.03. 13:00 1004 - 1,1
So, 17.03. 7:00 1008 - 0,8
Ortszeit Luftdruck NN (hPa) Tendenz (hPa in 3 Std.)
Di, 19.03. 6:00 1026 + 0,7
Di, 19.03. 5:50 1026 keine Meldung
Di, 19.03. 5:40 1026 keine Meldung
Di, 19.03. 5:30 1026 + 0,5
Di, 19.03. 5:20 1026 keine Meldung
Di, 19.03. 5:10 1026 keine Meldung
Di, 19.03. 5:00 1026 + 0,3
Di, 19.03. 4:30 1026 + 0,3
Di, 19.03. 4:00 1026 + 0,1
Di, 19.03. 3:30 1026 + 0,2
Di, 19.03. 3:00 1026 + 0,3
Ortszeit Schneehöhe (cm)
Di, 19.03. 1:00 0
Mo, 18.03. 19:00 0
Mo, 18.03. 13:00 0
Mo, 18.03. 7:00 0
Mo, 18.03. 1:00 0
So, 17.03. 19:00 0
So, 17.03. 13:00 0
So, 17.03. 7:00 0
Ortszeit Schneehöhe (cm)
Di, 19.03. 6:00 0
Di, 19.03. 5:50 0
Di, 19.03. 5:40 0
Di, 19.03. 5:30 0
Di, 19.03. 5:20 0
Di, 19.03. 5:10 0
Di, 19.03. 5:00 0
Di, 19.03. 4:30 0
Di, 19.03. 4:00 0
Di, 19.03. 3:30 0
Di, 19.03. 3:00 0
Link zu dieser Seite / Seite empfehlen

Das Wetter in ...